EWG01A LOWW-LROP
Flight info
| Callsign | EWG01A |
|---|---|
| Flight time | 1h 13m |
| Altitude | 37000 |
| Route | ADAMA DCT VEDER DCT ALAMU DCT EPARI DCT TEGRI DCT NEKUL DCT LAMIT DCT TOSVI |
| Aircraft | A320/M-SDE3FGHIRWY/LB1 |
Departure
| Time | 2026-04-24 19:47 |
|---|---|
| Airport | Vienna International Airport (LOWW) |
Arrival
| Time | 2026-04-24 21:00 |
|---|---|
| Airport | Bucharest Henri Coandă International Airport (LROP) |
| Time | Latitude | Longitude | Altitude | Speed | Heading |
|---|---|---|---|---|---|
| 2026-04-24 19:08 | 48.12058 | 16.55624 | 591 ft | 0 kts | 106° |
| 2026-04-24 19:39 | 48.12057 | 16.55627 | 591 ft | 0 kts | 107° |
| 2026-04-24 19:39 | 48.12059 | 16.55619 | 591 ft | 2 kts | 107° |
| 2026-04-24 19:40 | 48.12064 | 16.55594 | 591 ft | 3 kts | 125° |
| 2026-04-24 19:40 | 48.12077 | 16.55575 | 590 ft | 3 kts | 162° |
| 2026-04-24 19:40 | 48.12095 | 16.55568 | 590 ft | 3 kts | 167° |
| 2026-04-24 19:40 | 48.12100 | 16.55567 | 590 ft | 0 kts | 172° |
| 2026-04-24 19:41 | 48.12103 | 16.55566 | 590 ft | 0 kts | 178° |
| 2026-04-24 19:42 | 48.12086 | 16.55555 | 590 ft | 7 kts | 201° |
| 2026-04-24 19:42 | 48.12013 | 16.55509 | 593 ft | 15 kts | 203° |
| 2026-04-24 19:42 | 48.11944 | 16.55460 | 594 ft | 15 kts | 205° |
| 2026-04-24 19:43 | 48.11875 | 16.55426 | 593 ft | 14 kts | 190° |
| 2026-04-24 19:43 | 48.11782 | 16.55518 | 596 ft | 21 kts | 116° |
| 2026-04-24 19:43 | 48.11708 | 16.55746 | 599 ft | 21 kts | 115° |
| 2026-04-24 19:43 | 48.11647 | 16.55930 | 603 ft | 24 kts | 117° |
| 2026-04-24 19:44 | 48.11559 | 16.56200 | 601 ft | 33 kts | 117° |
| 2026-04-24 19:44 | 48.11481 | 16.56433 | 598 ft | 17 kts | 116° |
| 2026-04-24 19:44 | 48.11418 | 16.56637 | 601 ft | 26 kts | 114° |
| 2026-04-24 19:44 | 48.11357 | 16.56825 | 603 ft | 20 kts | 116° |
| 2026-04-24 19:45 | 48.11284 | 16.57051 | 614 ft | 25 kts | 115° |
| 2026-04-24 19:45 | 48.11233 | 16.57206 | 612 ft | 13 kts | 123° |
| 2026-04-24 19:45 | 48.11129 | 16.57198 | 611 ft | 21 kts | 205° |
| 2026-04-24 19:45 | 48.11057 | 16.57103 | 610 ft | 7 kts | 296° |
| 2026-04-24 19:46 | 48.11070 | 16.57061 | 616 ft | 6 kts | 293° |
| 2026-04-24 19:46 | 48.11100 | 16.56955 | 610 ft | 16 kts | 296° |
| 2026-04-24 19:46 | 48.11226 | 16.56561 | 608 ft | 79 kts | 296° |
| 2026-04-24 19:46 | 48.11587 | 16.55474 | 600 ft | 153 kts | 297° |
| 2026-04-24 19:47 | 48.12105 | 16.53901 | 1074 ft | 174 kts | 295° |
| 2026-04-24 19:47 | 48.12406 | 16.52141 | 2011 ft | 179 kts | 269° |
| 2026-04-24 19:47 | 48.11806 | 16.50556 | 3002 ft | 187 kts | 212° |
| 2026-04-24 19:47 | 48.10481 | 16.50237 | 3774 ft | 208 kts | 179° |
| 2026-04-24 19:48 | 48.08975 | 16.50257 | 4036 ft | 226 kts | 192° |
| 2026-04-24 19:48 | 48.07379 | 16.49758 | 4351 ft | 243 kts | 199° |
| 2026-04-24 19:48 | 48.03784 | 16.50259 | 5240 ft | 289 kts | 152° |
| 2026-04-24 19:49 | 48.00321 | 16.53488 | 6875 ft | 297 kts | 150° |
| 2026-04-24 19:49 | 47.97360 | 16.57818 | 8440 ft | 305 kts | 115° |
| 2026-04-24 19:50 | 47.97205 | 16.66924 | 10774 ft | 300 kts | 66° |
| 2026-04-24 19:50 | 47.97900 | 16.69873 | 11525 ft | 303 kts | 66° |
| 2026-04-24 19:51 | 47.99284 | 16.75889 | 12972 ft | 310 kts | 69° |
| 2026-04-24 19:51 | 47.99743 | 16.79072 | 13674 ft | 318 kts | 80° |
| 2026-04-24 19:52 | 48.00120 | 16.85735 | 14959 ft | 325 kts | 81° |
| 2026-04-24 19:52 | 48.00306 | 16.89059 | 15589 ft | 327 kts | 81° |
| 2026-04-24 19:52 | 48.00495 | 16.92451 | 16215 ft | 329 kts | 81° |
| 2026-04-24 19:52 | 48.00684 | 16.95873 | 16845 ft | 332 kts | 81° |
| 2026-04-24 19:53 | 48.00874 | 16.99314 | 17475 ft | 334 kts | 81° |
| 2026-04-24 19:53 | 48.01048 | 17.02794 | 18105 ft | 338 kts | 85° |
| 2026-04-24 19:53 | 48.00667 | 17.09886 | 19192 ft | 347 kts | 93° |
| 2026-04-24 19:54 | 48.00392 | 17.13484 | 19712 ft | 350 kts | 93° |
| 2026-04-24 19:54 | 48.00110 | 17.17107 | 20243 ft | 353 kts | 93° |
| 2026-04-24 19:54 | 47.99824 | 17.20758 | 20762 ft | 356 kts | 93° |
| 2026-04-24 19:54 | 47.99535 | 17.24439 | 21273 ft | 359 kts | 94° |
| 2026-04-24 19:55 | 47.99436 | 17.25696 | 21452 ft | 360 kts | 94° |
| 2026-04-24 19:55 | 47.98953 | 17.31905 | 22306 ft | 365 kts | 94° |
| 2026-04-24 19:55 | 47.98658 | 17.35686 | 22809 ft | 367 kts | 94° |
| 2026-04-24 19:55 | 47.98361 | 17.39489 | 23310 ft | 370 kts | 94° |
| 2026-04-24 19:56 | 47.98067 | 17.43270 | 23772 ft | 373 kts | 94° |
| 2026-04-24 19:56 | 47.97767 | 17.47131 | 24183 ft | 376 kts | 94° |
| 2026-04-24 19:56 | 47.97462 | 17.51015 | 24607 ft | 378 kts | 94° |
| 2026-04-24 19:56 | 47.97152 | 17.54922 | 25034 ft | 380 kts | 94° |
| 2026-04-24 19:57 | 47.96838 | 17.58853 | 25453 ft | 383 kts | 94° |
| 2026-04-24 19:57 | 47.96519 | 17.62808 | 25880 ft | 385 kts | 94° |
| 2026-04-24 19:57 | 47.96196 | 17.66781 | 26298 ft | 387 kts | 94° |
| 2026-04-24 19:57 | 47.95870 | 17.70771 | 26723 ft | 389 kts | 94° |
| 2026-04-24 19:58 | 47.95540 | 17.74794 | 27143 ft | 391 kts | 94° |
| 2026-04-24 19:58 | 47.95206 | 17.78834 | 27562 ft | 393 kts | 94° |
| 2026-04-24 19:58 | 47.94869 | 17.82893 | 27984 ft | 396 kts | 94° |
| 2026-04-24 19:58 | 47.94527 | 17.86986 | 28406 ft | 398 kts | 94° |
| 2026-04-24 19:59 | 47.94181 | 17.91098 | 28808 ft | 400 kts | 94° |
| 2026-04-24 19:59 | 47.93831 | 17.95229 | 29220 ft | 403 kts | 94° |
| 2026-04-24 19:59 | 47.93477 | 17.99382 | 29614 ft | 405 kts | 94° |
| 2026-04-24 19:59 | 47.93120 | 18.03551 | 29960 ft | 407 kts | 94° |
| 2026-04-24 20:00 | 47.92757 | 18.07748 | 30022 ft | 408 kts | 94° |
| 2026-04-24 20:00 | 47.92030 | 18.16119 | 30018 ft | 407 kts | 94° |
| 2026-04-24 20:01 | 47.91297 | 18.24495 | 30020 ft | 407 kts | 94° |
| 2026-04-24 20:01 | 47.90568 | 18.32810 | 30017 ft | 407 kts | 94° |
| 2026-04-24 20:02 | 47.89950 | 18.39826 | 30018 ft | 408 kts | 94° |
| 2026-04-24 20:02 | 47.89088 | 18.49561 | 30015 ft | 408 kts | 94° |
| 2026-04-24 20:03 | 47.88463 | 18.56585 | 30020 ft | 408 kts | 94° |
| 2026-04-24 20:03 | 47.87709 | 18.64979 | 30017 ft | 409 kts | 94° |
| 2026-04-24 20:04 | 47.86956 | 18.73307 | 30015 ft | 409 kts | 94° |
| 2026-04-24 20:04 | 47.86194 | 18.81731 | 30014 ft | 418 kts | 94° |
| 2026-04-24 20:04 | 47.85807 | 18.86077 | 30018 ft | 429 kts | 94° |
| 2026-04-24 20:05 | 47.85388 | 18.90545 | 30010 ft | 441 kts | 98° |
| 2026-04-24 20:05 | 47.84402 | 18.94935 | 30014 ft | 456 kts | 115° |
| 2026-04-24 20:05 | 47.82554 | 18.98833 | 30016 ft | 469 kts | 133° |
| 2026-04-24 20:06 | 47.77762 | 19.05666 | 30011 ft | 485 kts | 135° |
| 2026-04-24 20:06 | 47.72782 | 19.12595 | 30007 ft | 492 kts | 135° |
| 2026-04-24 20:07 | 47.68624 | 19.18386 | 30008 ft | 493 kts | 135° |
| 2026-04-24 20:07 | 47.62793 | 19.26557 | 30026 ft | 493 kts | 135° |
| 2026-04-24 20:08 | 47.57820 | 19.33530 | 30025 ft | 492 kts | 135° |
| 2026-04-24 20:08 | 47.52832 | 19.40474 | 30020 ft | 492 kts | 135° |
| 2026-04-24 20:09 | 47.47829 | 19.47392 | 30023 ft | 492 kts | 135° |
| 2026-04-24 20:09 | 47.42829 | 19.54302 | 30025 ft | 492 kts | 135° |
| 2026-04-24 20:10 | 47.37858 | 19.61167 | 30005 ft | 492 kts | 135° |
| 2026-04-24 20:10 | 47.32854 | 19.68056 | 30012 ft | 492 kts | 135° |
| 2026-04-24 20:11 | 47.27844 | 19.74941 | 30007 ft | 492 kts | 135° |
| 2026-04-24 20:11 | 47.22830 | 19.81805 | 30000 ft | 492 kts | 136° |
| 2026-04-24 20:12 | 47.17813 | 19.88656 | 30003 ft | 492 kts | 135° |
| 2026-04-24 20:12 | 47.12801 | 19.95483 | 30004 ft | 492 kts | 136° |
| 2026-04-24 20:13 | 47.07778 | 20.02297 | 29999 ft | 491 kts | 136° |
| 2026-04-24 20:13 | 47.02750 | 20.09096 | 30007 ft | 491 kts | 136° |
| 2026-04-24 20:14 | 46.97721 | 20.15878 | 30002 ft | 491 kts | 136° |
| 2026-04-24 20:14 | 46.92701 | 20.22657 | 30006 ft | 491 kts | 136° |
| 2026-04-24 20:15 | 46.87701 | 20.29371 | 30003 ft | 491 kts | 136° |
| 2026-04-24 20:15 | 46.82669 | 20.36108 | 30004 ft | 491 kts | 136° |
| 2026-04-24 20:16 | 46.77638 | 20.42831 | 30004 ft | 490 kts | 136° |
| 2026-04-24 20:16 | 46.72602 | 20.49545 | 30006 ft | 490 kts | 136° |
| 2026-04-24 20:17 | 46.67559 | 20.56240 | 30005 ft | 490 kts | 136° |
| 2026-04-24 20:17 | 46.60000 | 20.66263 | 30010 ft | 490 kts | 136° |
| 2026-04-24 20:18 | 46.54954 | 20.72921 | 30008 ft | 490 kts | 136° |
| 2026-04-24 20:18 | 46.49909 | 20.79568 | 30008 ft | 490 kts | 136° |
| 2026-04-24 20:19 | 46.45195 | 20.86624 | 30009 ft | 485 kts | 120° |
| 2026-04-24 20:19 | 46.41960 | 20.95164 | 30016 ft | 483 kts | 115° |
| 2026-04-24 20:20 | 46.38816 | 21.03786 | 30017 ft | 484 kts | 115° |
| 2026-04-24 20:20 | 46.35666 | 21.12393 | 30022 ft | 484 kts | 115° |
| 2026-04-24 20:21 | 46.32512 | 21.20931 | 30029 ft | 484 kts | 115° |
| 2026-04-24 20:21 | 46.29336 | 21.29511 | 30031 ft | 484 kts | 115° |
| 2026-04-24 20:22 | 46.26153 | 21.38082 | 30028 ft | 484 kts | 115° |
| 2026-04-24 20:22 | 46.22964 | 21.46639 | 30027 ft | 484 kts | 115° |
| 2026-04-24 20:23 | 46.19773 | 21.55177 | 30027 ft | 483 kts | 115° |
| 2026-04-24 20:23 | 46.16577 | 21.63706 | 30021 ft | 483 kts | 115° |
| 2026-04-24 20:24 | 46.13376 | 21.72215 | 30026 ft | 483 kts | 115° |
| 2026-04-24 20:24 | 46.10168 | 21.80709 | 30029 ft | 483 kts | 116° |
| 2026-04-24 20:25 | 46.06952 | 21.89202 | 30033 ft | 483 kts | 116° |
| 2026-04-24 20:25 | 46.03730 | 21.97680 | 30035 ft | 483 kts | 116° |
| 2026-04-24 20:26 | 46.00507 | 22.06156 | 30034 ft | 483 kts | 116° |
| 2026-04-24 20:26 | 45.97269 | 22.14624 | 30040 ft | 483 kts | 116° |
| 2026-04-24 20:27 | 45.94027 | 22.23074 | 30052 ft | 483 kts | 116° |
| 2026-04-24 20:27 | 45.90783 | 22.31520 | 30052 ft | 483 kts | 116° |
| 2026-04-24 20:28 | 45.87535 | 22.39945 | 30051 ft | 483 kts | 116° |
| 2026-04-24 20:28 | 45.84248 | 22.48348 | 30060 ft | 483 kts | 116° |
| 2026-04-24 20:29 | 45.81000 | 22.56705 | 30056 ft | 483 kts | 116° |
| 2026-04-24 20:29 | 45.77740 | 22.65118 | 30062 ft | 483 kts | 116° |
| 2026-04-24 20:30 | 45.74469 | 22.73514 | 30061 ft | 483 kts | 116° |
| 2026-04-24 20:30 | 45.71190 | 22.81893 | 30066 ft | 483 kts | 116° |
| 2026-04-24 20:31 | 45.67902 | 22.90273 | 30070 ft | 483 kts | 116° |
| 2026-04-24 20:31 | 45.64602 | 22.98645 | 30071 ft | 483 kts | 116° |
| 2026-04-24 20:32 | 45.61289 | 23.07004 | 30068 ft | 484 kts | 116° |
| 2026-04-24 20:32 | 45.57981 | 23.15370 | 30072 ft | 484 kts | 116° |
| 2026-04-24 20:33 | 45.56326 | 23.19541 | 29944 ft | 482 kts | 116° |
| 2026-04-24 20:33 | 45.54684 | 23.23672 | 29206 ft | 476 kts | 116° |
| 2026-04-24 20:33 | 45.53055 | 23.27756 | 28465 ft | 471 kts | 116° |
| 2026-04-24 20:33 | 45.51445 | 23.31795 | 27766 ft | 466 kts | 116° |
| 2026-04-24 20:34 | 45.49847 | 23.35796 | 27081 ft | 462 kts | 116° |
| 2026-04-24 20:34 | 45.48263 | 23.39754 | 26445 ft | 458 kts | 116° |
| 2026-04-24 20:34 | 45.46693 | 23.43668 | 25826 ft | 453 kts | 116° |
| 2026-04-24 20:34 | 45.45131 | 23.47555 | 25222 ft | 450 kts | 116° |
| 2026-04-24 20:35 | 45.43584 | 23.51406 | 24620 ft | 446 kts | 116° |
| 2026-04-24 20:35 | 45.42053 | 23.55216 | 24069 ft | 443 kts | 116° |
| 2026-04-24 20:35 | 45.40522 | 23.59023 | 23609 ft | 441 kts | 116° |
| 2026-04-24 20:35 | 45.38998 | 23.62803 | 23056 ft | 439 kts | 116° |
| 2026-04-24 20:36 | 45.37481 | 23.66547 | 22517 ft | 436 kts | 117° |
| 2026-04-24 20:36 | 45.35973 | 23.70263 | 21990 ft | 432 kts | 117° |
| 2026-04-24 20:36 | 45.34476 | 23.73951 | 21470 ft | 429 kts | 117° |
| 2026-04-24 20:36 | 45.32994 | 23.77606 | 20961 ft | 426 kts | 117° |
| 2026-04-24 20:37 | 45.31520 | 23.81245 | 20445 ft | 423 kts | 117° |
| 2026-04-24 20:37 | 45.30074 | 23.84808 | 19974 ft | 420 kts | 117° |
| 2026-04-24 20:37 | 45.28615 | 23.88392 | 19468 ft | 418 kts | 117° |
| 2026-04-24 20:37 | 45.27161 | 23.91959 | 18872 ft | 417 kts | 117° |
| 2026-04-24 20:38 | 45.25711 | 23.95521 | 18282 ft | 417 kts | 117° |
| 2026-04-24 20:38 | 45.24262 | 23.99084 | 17614 ft | 416 kts | 117° |
| 2026-04-24 20:38 | 45.22816 | 24.02632 | 16960 ft | 415 kts | 117° |
| 2026-04-24 20:38 | 45.21364 | 24.06176 | 16321 ft | 414 kts | 118° |
| 2026-04-24 20:39 | 45.19914 | 24.09709 | 15692 ft | 413 kts | 118° |
| 2026-04-24 20:39 | 45.18472 | 24.13214 | 15080 ft | 411 kts | 118° |
| 2026-04-24 20:39 | 45.17045 | 24.16719 | 14464 ft | 409 kts | 117° |
| 2026-04-24 20:39 | 45.15693 | 24.20239 | 13980 ft | 404 kts | 116° |
| 2026-04-24 20:40 | 45.14422 | 24.23707 | 13856 ft | 388 kts | 115° |
| 2026-04-24 20:40 | 45.13220 | 24.27060 | 13584 ft | 377 kts | 115° |
| 2026-04-24 20:40 | 45.12042 | 24.30355 | 13108 ft | 373 kts | 115° |
| 2026-04-24 20:40 | 45.10874 | 24.33615 | 12592 ft | 370 kts | 116° |
| 2026-04-24 20:41 | 45.09706 | 24.36842 | 12053 ft | 367 kts | 116° |
| 2026-04-24 20:41 | 45.08536 | 24.40040 | 11536 ft | 365 kts | 116° |
| 2026-04-24 20:41 | 45.07366 | 24.43211 | 11102 ft | 363 kts | 117° |
| 2026-04-24 20:41 | 45.06195 | 24.46363 | 10978 ft | 358 kts | 117° |
| 2026-04-24 20:42 | 45.05061 | 24.49409 | 10997 ft | 345 kts | 117° |
| 2026-04-24 20:42 | 45.03949 | 24.52402 | 11000 ft | 342 kts | 117° |
| 2026-04-24 20:42 | 45.02846 | 24.55380 | 11001 ft | 342 kts | 117° |
| 2026-04-24 20:42 | 45.01743 | 24.58359 | 11000 ft | 342 kts | 117° |
| 2026-04-24 20:43 | 45.00641 | 24.61332 | 10998 ft | 342 kts | 117° |
| 2026-04-24 20:43 | 44.99539 | 24.64300 | 11001 ft | 342 kts | 117° |
| 2026-04-24 20:43 | 44.98433 | 24.67276 | 10997 ft | 342 kts | 117° |
| 2026-04-24 20:43 | 44.97328 | 24.70246 | 10991 ft | 342 kts | 117° |
| 2026-04-24 20:44 | 44.96218 | 24.73221 | 10992 ft | 342 kts | 117° |
| 2026-04-24 20:44 | 44.95110 | 24.76194 | 10994 ft | 342 kts | 117° |
| 2026-04-24 20:44 | 44.94008 | 24.79147 | 10992 ft | 335 kts | 117° |
| 2026-04-24 20:44 | 44.92935 | 24.82012 | 10994 ft | 327 kts | 117° |
| 2026-04-24 20:45 | 44.91873 | 24.84842 | 10992 ft | 326 kts | 117° |
| 2026-04-24 20:45 | 44.90812 | 24.87664 | 10995 ft | 326 kts | 117° |
| 2026-04-24 20:45 | 44.89750 | 24.90485 | 10993 ft | 326 kts | 117° |
| 2026-04-24 20:45 | 44.88689 | 24.93305 | 10992 ft | 325 kts | 117° |
| 2026-04-24 20:46 | 44.87630 | 24.96119 | 10993 ft | 325 kts | 117° |
| 2026-04-24 20:46 | 44.86570 | 24.98940 | 10988 ft | 325 kts | 117° |
| 2026-04-24 20:46 | 44.85523 | 25.01724 | 10989 ft | 326 kts | 117° |
| 2026-04-24 20:46 | 44.84463 | 25.04543 | 10993 ft | 326 kts | 117° |
| 2026-04-24 20:47 | 44.83390 | 25.07398 | 10986 ft | 326 kts | 117° |
| 2026-04-24 20:47 | 44.82343 | 25.10178 | 10990 ft | 326 kts | 117° |
| 2026-04-24 20:47 | 44.81276 | 25.12998 | 10985 ft | 326 kts | 117° |
| 2026-04-24 20:47 | 44.80210 | 25.15813 | 10986 ft | 326 kts | 117° |
| 2026-04-24 20:48 | 44.79140 | 25.18628 | 10972 ft | 325 kts | 117° |
| 2026-04-24 20:48 | 44.78079 | 25.21418 | 10607 ft | 323 kts | 117° |
| 2026-04-24 20:48 | 44.77020 | 25.24202 | 10202 ft | 322 kts | 117° |
| 2026-04-24 20:48 | 44.75966 | 25.26974 | 9810 ft | 320 kts | 117° |
| 2026-04-24 20:49 | 44.74924 | 25.29708 | 9544 ft | 310 kts | 118° |
| 2026-04-24 20:49 | 44.73926 | 25.32325 | 9056 ft | 300 kts | 118° |
| 2026-04-24 20:49 | 44.72947 | 25.34888 | 8449 ft | 295 kts | 118° |
| 2026-04-24 20:49 | 44.71985 | 25.37405 | 7826 ft | 290 kts | 118° |
| 2026-04-24 20:50 | 44.71036 | 25.39888 | 7223 ft | 286 kts | 118° |
| 2026-04-24 20:50 | 44.70102 | 25.42334 | 6615 ft | 282 kts | 118° |
| 2026-04-24 20:50 | 44.69175 | 25.44753 | 6004 ft | 281 kts | 118° |
| 2026-04-24 20:50 | 44.68262 | 25.47137 | 5778 ft | 272 kts | 118° |
| 2026-04-24 20:51 | 44.67665 | 25.48695 | 5691 ft | 263 kts | 119° |
| 2026-04-24 20:51 | 44.66830 | 25.50879 | 5564 ft | 252 kts | 119° |
| 2026-04-24 20:51 | 44.66021 | 25.52996 | 5433 ft | 240 kts | 119° |
| 2026-04-24 20:51 | 44.65248 | 25.55015 | 5224 ft | 231 kts | 119° |
| 2026-04-24 20:52 | 44.64494 | 25.56986 | 4598 ft | 232 kts | 119° |
| 2026-04-24 20:52 | 44.63714 | 25.59014 | 4029 ft | 231 kts | 118° |
| 2026-04-24 20:52 | 44.62973 | 25.60937 | 3913 ft | 220 kts | 118° |
| 2026-04-24 20:52 | 44.62246 | 25.62821 | 3904 ft | 220 kts | 118° |
| 2026-04-24 20:53 | 44.61516 | 25.64709 | 3920 ft | 220 kts | 118° |
| 2026-04-24 20:53 | 44.60784 | 25.66599 | 3911 ft | 220 kts | 118° |
| 2026-04-24 20:53 | 44.60054 | 25.68483 | 3909 ft | 220 kts | 118° |
| 2026-04-24 20:53 | 44.59326 | 25.70366 | 3911 ft | 220 kts | 118° |
| 2026-04-24 20:54 | 44.58598 | 25.72246 | 3859 ft | 218 kts | 118° |
| 2026-04-24 20:54 | 44.57882 | 25.74092 | 3678 ft | 211 kts | 118° |
| 2026-04-24 20:54 | 44.57195 | 25.75866 | 3517 ft | 205 kts | 118° |
| 2026-04-24 20:54 | 44.56491 | 25.77680 | 2814 ft | 218 kts | 117° |
| 2026-04-24 20:55 | 44.55769 | 25.79544 | 2464 ft | 211 kts | 117° |
| 2026-04-24 20:55 | 44.55090 | 25.81291 | 2436 ft | 196 kts | 115° |
| 2026-04-24 20:55 | 44.54684 | 25.82972 | 2420 ft | 170 kts | 96° |
| 2026-04-24 20:55 | 44.54678 | 25.84556 | 2411 ft | 158 kts | 81° |
| 2026-04-24 20:56 | 44.54798 | 25.86063 | 2405 ft | 153 kts | 82° |
| 2026-04-24 20:56 | 44.54909 | 25.87513 | 2410 ft | 146 kts | 82° |
| 2026-04-24 20:56 | 44.55016 | 25.88885 | 2417 ft | 142 kts | 82° |
| 2026-04-24 20:56 | 44.55124 | 25.90272 | 2418 ft | 141 kts | 82° |
| 2026-04-24 20:57 | 44.55228 | 25.91622 | 2333 ft | 141 kts | 81° |
| 2026-04-24 20:57 | 44.55333 | 25.92975 | 2226 ft | 139 kts | 81° |
| 2026-04-24 20:57 | 44.55437 | 25.94313 | 2050 ft | 137 kts | 80° |
| 2026-04-24 20:57 | 44.55539 | 25.95634 | 1891 ft | 136 kts | 80° |
| 2026-04-24 20:58 | 44.55641 | 25.96948 | 1727 ft | 135 kts | 79° |
| 2026-04-24 20:58 | 44.55742 | 25.98256 | 1557 ft | 135 kts | 79° |
| 2026-04-24 20:58 | 44.55843 | 25.99566 | 1398 ft | 135 kts | 80° |
| 2026-04-24 20:58 | 44.55944 | 26.00876 | 1232 ft | 136 kts | 81° |
| 2026-04-24 20:59 | 44.56046 | 26.02198 | 1062 ft | 137 kts | 82° |
| 2026-04-24 20:59 | 44.56147 | 26.03524 | 894 ft | 137 kts | 84° |
| 2026-04-24 20:59 | 44.56247 | 26.04851 | 729 ft | 137 kts | 84° |
| 2026-04-24 20:59 | 44.56347 | 26.06169 | 557 ft | 136 kts | 84° |
| 2026-04-24 21:00 | 44.56452 | 26.07480 | 405 ft | 135 kts | 84° |
| 2026-04-24 21:00 | 44.56544 | 26.08730 | 321 ft | 115 kts | 85° |
| 2026-04-24 21:00 | 44.56615 | 26.09659 | 318 ft | 78 kts | 84° |
| 2026-04-24 21:00 | 44.56657 | 26.10210 | 318 ft | 33 kts | 84° |
| 2026-04-24 21:01 | 44.56678 | 26.10513 | 316 ft | 31 kts | 86° |
| 2026-04-24 21:01 | 44.56716 | 26.10761 | 315 ft | 14 kts | 32° |
| 2026-04-24 21:01 | 44.56784 | 26.10757 | 315 ft | 3 kts | 340° |
| 2026-04-24 21:01 | 44.56802 | 26.10754 | 316 ft | 0 kts | 354° |
| 2026-04-24 21:02 | 44.56806 | 26.10753 | 316 ft | 5 kts | 354° |
| 2026-04-24 21:02 | 44.56815 | 26.10752 | 315 ft | 0 kts | 354° |
| 2026-04-24 21:03 | 44.56842 | 26.10749 | 315 ft | 11 kts | 355° |
| 2026-04-24 21:03 | 44.56924 | 26.10736 | 315 ft | 6 kts | 353° |
| 2026-04-24 21:04 | 44.57009 | 26.10690 | 316 ft | 19 kts | 317° |
| 2026-04-24 21:04 | 44.57061 | 26.10548 | 316 ft | 20 kts | 290° |
| 2026-04-24 21:04 | 44.57053 | 26.10298 | 317 ft | 32 kts | 264° |
| 2026-04-24 21:04 | 44.57031 | 26.10017 | 317 ft | 22 kts | 259° |
| 2026-04-24 21:05 | 44.57006 | 26.09740 | 318 ft | 34 kts | 256° |
| 2026-04-24 21:05 | 44.56994 | 26.09552 | 319 ft | 23 kts | 265° |
| 2026-04-24 21:05 | 44.56971 | 26.09268 | 319 ft | 35 kts | 264° |
| 2026-04-24 21:05 | 44.56950 | 26.08965 | 320 ft | 24 kts | 261° |
| 2026-04-24 21:06 | 44.56936 | 26.08810 | 320 ft | 19 kts | 264° |